Churchville, Iowa
Current Conditions -  °F | °C
As of 9:07 PM on Sunday 23 Nov 2014 (Local Time) from KDSM Reporting Station
Light Rain Light Rain  
Wind Chill: 30°   Ceiling: 2100
Heat Index: 40°   Visibility: 10mi
Dew Point: 33°   Wind: 23mph
Humidity: 77%   Direction: 330°NNW
Pressure: 29.4"   Gusts: 38mph
Location:  41.4552°N, 93.6809°W
Report Text: KDSM 240307Z 33020G33KT 10SM -RA FEW014 BKN021 OVC037 04/01 A2940 RMK AO2 PK WND 35033/0258 P0000 T00440006
Loading
Personal Weather Stations






























Interactive Weather Map New forecast layout! Learn more

10-Day Weather Forecast

Advertisements
Track Severe Weather on mobile